createdAt,value
2023-02-03T00:00:15.257Z,106.93
2023-02-03T00:02:45.613Z,116.30
2023-02-03T00:05:14.883Z,98.97
2023-02-03T00:07:44.620Z,102.43
2023-02-03T00:10:13.515Z,94.70
2023-02-03T00:12:42.916Z,99.90
2023-02-03T00:15:13.233Z,92.57
2023-02-03T00:17:45.201Z,94.50
2023-02-03T00:20:17.839Z,103.60
2023-02-03T00:22:46.952Z,108.93
2023-02-03T00:25:16.599Z,108.10
2023-02-03T00:27:44.675Z,109.53
2023-02-03T00:30:15.613Z,103.73
2023-02-03T00:32:44.077Z,92.87
2023-02-03T00:35:13.332Z,105.70
2023-02-03T00:37:46.985Z,94.03
2023-02-03T00:40:16.574Z,91.27
2023-02-03T00:42:45.555Z,102.07
2023-02-03T00:45:15.378Z,102.30
2023-02-03T00:47:43.763Z,127.77
2023-02-03T00:50:14.896Z,120.77
2023-02-03T00:52:46.168Z,122.73
2023-02-03T00:55:16.699Z,104.50
2023-02-03T00:57:45.558Z,94.87
2023-02-03T01:00:16.212Z,95.27
2023-02-03T01:02:45.137Z,102.97
2023-02-03T01:05:14.411Z,104.93
2023-02-03T01:07:44.124Z,102.90
2023-02-03T01:10:13.024Z,102.70
2023-02-03T01:12:42.000Z,104.07
2023-02-03T01:15:11.933Z,106.33
2023-02-03T01:17:42.328Z,98.93
2023-02-03T01:20:14.959Z,105.63
2023-02-03T01:22:44.819Z,107.60
2023-02-03T01:25:12.737Z,111.07
2023-02-03T01:27:41.072Z,114.80
2023-02-03T01:30:12.917Z,114.87
2023-02-03T01:32:43.919Z,101.70
2023-02-03T01:35:12.061Z,106.87
2023-02-03T01:37:40.629Z,109.93
2023-02-03T01:40:13.946Z,110.00
2023-02-03T01:42:42.922Z,109.90
2023-02-03T01:45:14.399Z,111.27
2023-02-03T01:47:49.833Z,109.00
2023-02-03T01:50:30.537Z,102.67
2023-02-03T01:53:22.323Z,116.13
2023-02-03T01:55:50.715Z,113.90
2023-02-03T01:58:20.723Z,108.00
2023-02-03T02:00:49.717Z,115.87
2023-02-03T02:03:20.228Z,113.77
2023-02-03T02:06:03.868Z,111.10
2023-02-03T02:08:32.150Z,105.40
2023-02-03T02:11:03.319Z,110.77
2023-02-03T02:13:31.986Z,116.47
2023-02-03T02:16:23.556Z,116.90
2023-02-03T02:19:01.196Z,113.00
2023-02-03T02:21:43.930Z,110.00
2023-02-03T02:24:23.379Z,122.23
2023-02-03T02:27:17.456Z,115.90
2023-02-03T02:30:11.734Z,111.50
2023-02-03T02:32:49.485Z,114.47
2023-02-03T02:35:40.685Z,119.03
2023-02-03T02:38:46.203Z,123.17
2023-02-03T02:41:22.239Z,111.30
2023-02-03T02:44:04.923Z,107.27
2023-02-03T02:46:48.112Z,108.87
2023-02-03T02:49:35.434Z,111.10
2023-02-03T02:52:11.452Z,105.57
2023-02-03T02:54:41.168Z,110.03
2023-02-03T02:57:10.101Z,111.63
2023-02-03T02:59:59.946Z,116.03
2023-02-03T03:02:35.189Z,107.83
2023-02-03T03:05:06.188Z,116.33
2023-02-03T03:07:36.561Z,119.40
2023-02-03T03:10:08.098Z,112.80
2023-02-03T03:12:35.865Z,108.33
2023-02-03T03:15:25.279Z,113.77
2023-02-03T03:18:14.063Z,120.90
2023-02-03T03:20:43.222Z,108.47
2023-02-03T03:23:16.017Z,106.07
2023-02-03T03:26:05.807Z,102.73
2023-02-03T03:28:53.995Z,107.97
2023-02-03T03:31:21.496Z,107.23
2023-02-03T03:33:53.665Z,113.53
2023-02-03T03:36:29.486Z,111.10
2023-02-03T03:39:05.354Z,112.37
2023-02-03T03:41:57.775Z,103.63
2023-02-03T03:44:28.502Z,94.27
2023-02-03T03:47:00.893Z,84.20
2023-02-03T03:49:29.595Z,85.30
2023-02-03T03:52:02.400Z,77.93
2023-02-03T03:54:32.691Z,77.40
2023-02-03T03:57:17.675Z,67.70
2023-02-03T03:59:46.273Z,73.63
2023-02-03T04:02:15.631Z,75.83
2023-02-03T04:04:43.494Z,71.50
2023-02-03T04:07:12.996Z,69.90
2023-02-03T04:09:43.016Z,79.43
2023-02-03T04:12:45.921Z,66.53
2023-02-03T04:15:14.753Z,66.97
2023-02-03T04:17:42.673Z,74.03
2023-02-03T04:20:14.372Z,73.20
2023-02-03T04:22:42.488Z,76.30
2023-02-03T04:25:11.661Z,69.87
2023-02-03T04:27:40.692Z,70.67
2023-02-03T04:30:09.825Z,69.57
2023-02-03T04:32:38.369Z,75.30
2023-02-03T04:35:06.000Z,79.07
2023-02-03T04:37:34.018Z,80.13
2023-02-03T04:40:02.496Z,71.30
2023-02-03T04:42:30.496Z,72.80
2023-02-03T04:44:58.872Z,77.77
2023-02-03T04:47:27.170Z,88.87
2023-02-03T04:49:55.338Z,80.10
2023-02-03T04:52:23.375Z,82.33
2023-02-03T04:54:51.676Z,72.47
2023-02-03T04:57:19.485Z,71.70
2023-02-03T04:59:48.146Z,74.60
2023-02-03T05:02:15.979Z,70.57
2023-02-03T05:04:43.971Z,67.40
2023-02-03T05:07:12.405Z,79.10
2023-02-03T05:09:40.589Z,67.97
2023-02-03T05:12:09.120Z,65.70
2023-02-03T05:14:38.215Z,75.57
2023-02-03T05:17:06.394Z,74.90
2023-02-03T05:19:34.677Z,72.60
2023-02-03T05:22:05.403Z,65.77
2023-02-03T05:24:36.651Z,71.93
2023-02-03T05:27:05.096Z,72.73
2023-02-03T05:29:33.297Z,69.60
2023-02-03T05:32:01.902Z,66.33
2023-02-03T05:34:30.372Z,69.40
2023-02-03T05:36:57.935Z,74.37
2023-02-03T05:39:27.107Z,63.67
2023-02-03T05:41:57.324Z,70.67
2023-02-03T05:44:28.800Z,71.27
2023-02-03T05:46:58.010Z,73.50
2023-02-03T05:49:25.819Z,76.13
2023-02-03T05:51:54.103Z,73.67
2023-02-03T05:54:22.535Z,75.57
2023-02-03T05:56:50.893Z,77.10
2023-02-03T05:59:19.668Z,88.47
2023-02-03T06:01:47.981Z,92.17
2023-02-03T06:04:16.118Z,91.43
2023-02-03T06:06:47.798Z,102.83
2023-02-03T06:09:15.601Z,103.30
2023-02-03T06:11:42.881Z,106.70
2023-02-03T06:14:10.659Z,112.27
2023-02-03T06:16:39.411Z,109.87
2023-02-03T06:19:07.023Z,116.77
2023-02-03T06:21:35.552Z,115.27
2023-02-03T06:24:03.844Z,114.60
2023-02-03T06:26:32.988Z,122.73
2023-02-03T06:29:01.395Z,120.27
2023-02-03T06:31:29.709Z,126.47
2023-02-03T06:33:57.481Z,117.27
2023-02-03T06:36:25.508Z,120.67
2023-02-03T06:38:53.580Z,137.97
2023-02-03T06:41:27.760Z,119.23
2023-02-03T06:43:56.612Z,124.97
2023-02-03T06:46:29.459Z,119.87
2023-02-03T06:48:57.197Z,114.00
2023-02-03T06:51:26.083Z,111.67
2023-02-03T06:53:55.158Z,121.97
2023-02-03T06:56:23.055Z,110.87
2023-02-03T06:58:53.887Z,114.63
2023-02-03T07:01:21.625Z,112.73
2023-02-03T07:03:49.865Z,112.77
2023-02-03T07:06:17.931Z,108.60
2023-02-03T07:08:46.711Z,112.53
2023-02-03T07:11:20.452Z,123.37
2023-02-03T07:13:49.219Z,118.87
2023-02-03T07:16:19.226Z,134.57
2023-02-03T07:18:48.432Z,125.67
2023-02-03T07:21:16.327Z,124.80
2023-02-03T07:23:45.688Z,123.83
2023-02-03T07:26:13.929Z,121.37
2023-02-03T07:28:41.717Z,137.17
2023-02-03T07:31:10.669Z,121.20
2023-02-03T07:33:39.487Z,124.13
2023-02-03T07:36:10.131Z,128.40
2023-02-03T07:38:41.125Z,140.47
2023-02-03T07:41:09.340Z,128.60
2023-02-03T07:43:37.065Z,128.47
2023-02-03T07:46:05.813Z,129.93
2023-02-03T07:48:33.529Z,137.73
2023-02-03T07:51:02.131Z,134.73
2023-02-03T07:53:29.901Z,152.40
2023-02-03T07:56:03.388Z,158.67
2023-02-03T07:58:31.974Z,143.90
2023-02-03T08:00:59.714Z,129.77
2023-02-03T08:03:27.860Z,141.53
2023-02-03T08:05:55.815Z,138.00
2023-02-03T08:08:23.659Z,125.97
2023-02-03T08:10:52.190Z,137.43
2023-02-03T08:13:20.581Z,148.90
2023-02-03T08:15:49.137Z,138.77
2023-02-03T08:18:19.689Z,161.17
2023-02-03T08:20:51.185Z,144.93
2023-02-03T08:23:19.796Z,142.30
2023-02-03T08:25:54.034Z,160.90
2023-02-03T08:28:22.357Z,150.63
2023-02-03T08:30:50.235Z,158.73
2023-02-03T08:33:18.587Z,158.60
2023-02-03T08:35:47.610Z,187.80
2023-02-03T08:38:15.798Z,154.90
2023-02-03T08:40:43.515Z,163.63
2023-02-03T08:43:14.280Z,132.77
2023-02-03T08:45:42.796Z,171.97
2023-02-03T08:48:10.524Z,188.97
2023-02-03T08:50:38.822Z,151.37
2023-02-03T08:53:08.713Z,166.67
2023-02-03T08:55:39.601Z,141.53
2023-02-03T08:58:07.993Z,174.80
2023-02-03T09:00:36.132Z,164.33
2023-02-03T09:03:04.414Z,163.67
2023-02-03T09:05:34.148Z,175.33
2023-02-03T09:08:02.609Z,157.00
2023-02-03T09:10:31.398Z,146.23
2023-02-03T09:12:59.773Z,128.23
2023-02-03T09:15:51.699Z,144.07
2023-02-03T09:18:22.643Z,179.07
2023-02-03T09:20:50.741Z,133.83
2023-02-03T09:23:21.733Z,190.30
2023-02-03T09:25:50.520Z,165.30
2023-02-03T09:28:18.638Z,136.03
2023-02-03T09:30:47.716Z,129.67
2023-02-03T09:33:16.057Z,154.87
2023-02-03T09:35:52.366Z,150.40
2023-02-03T09:38:21.004Z,172.47
2023-02-03T09:41:11.206Z,154.93
2023-02-03T09:43:57.010Z,149.20
2023-02-03T09:46:26.589Z,190.43
2023-02-03T09:48:59.930Z,158.63
2023-02-03T09:51:36.272Z,164.80
2023-02-03T09:54:49.347Z,157.50
2023-02-03T09:57:24.700Z,140.77
2023-02-03T09:59:52.201Z,132.00
2023-02-03T10:02:19.136Z,123.57
2023-02-03T10:04:57.838Z,133.10
2023-02-03T10:07:43.735Z,134.40
2023-02-03T10:10:27.509Z,134.30
2023-02-03T10:13:25.880Z,122.77
2023-02-03T10:16:09.100Z,106.27
2023-02-03T10:18:42.780Z,113.00
2023-02-03T10:21:17.565Z,112.07
2023-02-03T10:23:44.373Z,108.97
2023-02-03T10:26:16.809Z,120.43
2023-02-03T10:28:58.873Z,118.07
2023-02-03T10:31:28.469Z,116.07
2023-02-03T10:34:28.044Z,118.83
2023-02-03T10:36:57.997Z,111.07
2023-02-03T10:39:56.775Z,121.57
2023-02-03T10:42:24.517Z,117.90
2023-02-03T10:44:56.430Z,106.67
2023-02-03T10:47:36.322Z,111.10
2023-02-03T10:50:17.208Z,110.80
2023-02-03T10:52:45.447Z,108.00
2023-02-03T10:55:27.603Z,117.67
2023-02-03T10:57:55.254Z,112.20
2023-02-03T11:00:24.402Z,109.00
2023-02-03T11:03:03.789Z,111.70
2023-02-03T11:05:32.291Z,120.47
2023-02-03T11:08:00.449Z,127.10
2023-02-03T11:10:35.642Z,119.07
2023-02-03T11:13:25.100Z,121.93
2023-02-03T11:15:58.113Z,137.40
2023-02-03T11:18:40.980Z,163.00
2023-02-03T11:21:17.366Z,154.00
2023-02-03T11:23:53.686Z,132.95
2023-02-03T11:26:23.675Z,127.73
2023-02-03T11:28:52.277Z,130.60
2023-02-03T11:31:30.113Z,136.60
2023-02-03T11:34:00.055Z,131.13
2023-02-03T11:36:29.106Z,135.20
2023-02-03T11:39:10.765Z,136.30
2023-02-03T11:41:39.128Z,127.83
2023-02-03T11:44:20.478Z,121.40
2023-02-03T11:46:51.701Z,117.70
2023-02-03T11:49:47.244Z,111.43
2023-02-03T11:53:14.169Z,110.63
2023-02-03T11:55:48.799Z,113.53
2023-02-03T11:58:42.224Z,110.30
2023-02-03T12:01:15.201Z,109.60
2023-02-03T12:04:04.114Z,105.13
2023-02-03T12:07:08.297Z,111.43
2023-02-03T12:09:56.689Z,102.80
2023-02-03T12:12:42.044Z,106.53
2023-02-03T12:15:37.043Z,110.67
2023-02-03T12:18:26.878Z,101.67
2023-02-03T12:21:14.610Z,104.33
2023-02-03T12:24:12.052Z,105.83
2023-02-03T12:27:10.081Z,103.65
2023-02-03T12:29:51.760Z,96.77
2023-02-03T12:32:25.239Z,106.23
2023-02-03T12:35:16.702Z,100.30
2023-02-03T12:38:14.108Z,107.77
2023-02-03T12:40:53.292Z,101.95
2023-02-03T12:43:26.755Z,104.23
2023-02-03T12:45:56.681Z,100.63
2023-02-03T12:48:26.516Z,102.17
2023-02-03T12:50:57.627Z,99.37
2023-02-03T12:53:30.611Z,102.23
2023-02-03T12:56:23.675Z,100.50
2023-02-03T12:59:05.612Z,93.93
2023-02-03T13:01:50.393Z,100.83
2023-02-03T13:04:49.820Z,103.73
2023-02-03T13:07:50.348Z,106.50
2023-02-03T13:10:32.548Z,102.47
2023-02-03T13:13:00.209Z,106.57
2023-02-03T13:15:34.513Z,97.37
2023-02-03T13:18:11.066Z,108.77
2023-02-03T13:23:11.118Z,104.80
2023-02-03T13:26:12.240Z,97.13
2023-02-03T13:28:51.347Z,98.40
2023-02-03T13:31:36.247Z,105.37
2023-02-03T13:34:25.012Z,100.37
2023-02-03T13:36:57.862Z,107.70
2023-02-03T13:39:30.654Z,95.53
2023-02-03T13:42:28.437Z,104.87
2023-02-03T13:45:05.969Z,103.72
2023-02-03T13:47:33.717Z,90.60
2023-02-03T13:50:02.961Z,103.10
2023-02-03T13:52:40.226Z,101.40
2023-02-03T13:55:08.333Z,100.67
2023-02-03T13:57:36.407Z,98.40
2023-02-03T14:00:12.422Z,102.67
2023-02-03T14:02:42.444Z,99.07
2023-02-03T14:05:29.965Z,97.67
2023-02-03T14:07:58.335Z,92.30
2023-02-03T14:10:26.244Z,95.77
2023-02-03T14:12:53.299Z,97.43
2023-02-03T14:15:26.380Z,93.83
2023-02-03T14:17:53.709Z,92.50
2023-02-03T14:20:29.440Z,94.80
2023-02-03T14:22:58.651Z,91.33
2023-02-03T14:25:27.668Z,91.13
2023-02-03T14:28:13.018Z,94.40
2023-02-03T14:31:04.513Z,92.37
2023-02-03T14:33:46.469Z,93.43
2023-02-03T14:36:36.111Z,88.53
2023-02-03T14:39:30.800Z,89.93
2023-02-03T14:42:13.208Z,94.87
2023-02-03T14:45:11.247Z,89.43
2023-02-03T14:47:56.931Z,97.67
2023-02-03T14:50:29.447Z,107.50
2023-02-03T14:53:06.465Z,100.37
2023-02-03T14:55:44.141Z,102.27
2023-02-03T14:58:25.270Z,95.27
2023-02-03T15:01:00.457Z,95.77
2023-02-03T15:03:30.272Z,89.20
2023-02-03T15:06:04.937Z,94.70
2023-02-03T15:08:44.352Z,91.27
2023-02-03T15:11:30.181Z,98.50
2023-02-03T15:14:16.995Z,112.00
2023-02-03T15:16:45.791Z,114.33
2023-02-03T15:19:20.940Z,115.57
2023-02-03T15:21:49.189Z,112.83
2023-02-03T15:24:21.512Z,117.10
2023-02-03T15:26:50.696Z,114.90
2023-02-03T15:29:26.714Z,117.17
2023-02-03T15:31:57.830Z,114.83
2023-02-03T15:34:27.020Z,114.30
2023-02-03T15:36:56.213Z,121.10
2023-02-03T15:39:39.197Z,118.00
2023-02-03T15:42:12.965Z,118.53
2023-02-03T15:44:42.947Z,112.43
2023-02-03T15:47:26.139Z,123.67
2023-02-03T15:50:01.221Z,118.77
2023-02-03T15:52:33.749Z,117.50
2023-02-03T15:55:14.256Z,120.67
2023-02-03T15:57:41.910Z,118.27
2023-02-03T16:00:34.138Z,126.27
2023-02-03T16:03:01.026Z,118.07
2023-02-03T16:05:34.314Z,118.67
2023-02-03T16:08:49.041Z,119.13
2023-02-03T16:11:30.326Z,118.03
2023-02-03T16:14:00.517Z,128.27
2023-02-03T16:16:31.733Z,115.40
2023-02-03T16:19:38.373Z,118.50
2023-02-03T16:22:26.101Z,112.90
2023-02-03T16:24:54.188Z,122.35
2023-02-03T16:27:33.406Z,121.03
2023-02-03T16:30:41.713Z,124.03
2023-02-03T16:33:27.126Z,128.13
2023-02-03T16:36:16.702Z,129.03
2023-02-03T16:39:07.311Z,119.10
2023-02-03T16:41:53.359Z,119.83
2023-02-03T16:44:39.337Z,116.47
2023-02-03T16:47:44.477Z,120.03
2023-02-03T16:50:40.943Z,121.00
2023-02-03T16:53:17.123Z,130.73
2023-02-03T16:55:45.721Z,94.40
2023-02-03T16:58:13.432Z,134.47
2023-02-03T17:00:42.101Z,120.47
2023-02-03T17:03:11.704Z,131.60
2023-02-03T17:05:42.120Z,129.80
2023-02-03T17:08:12.533Z,126.67
2023-02-03T17:10:41.648Z,130.27
2023-02-03T17:13:10.096Z,120.30
2023-02-03T17:15:41.413Z,125.07
2023-02-03T17:18:08.690Z,116.77
2023-02-03T17:20:36.218Z,128.87
2023-02-03T17:23:04.472Z,122.23
2023-02-03T17:25:36.001Z,126.80
2023-02-03T17:28:26.853Z,129.50
2023-02-03T17:31:02.062Z,127.60
2023-02-03T17:33:29.967Z,134.53
2023-02-03T17:36:17.218Z,132.10
2023-02-03T17:55:19.709Z,145.53
2023-02-03T17:57:48.051Z,143.00
2023-02-03T18:00:18.197Z,156.53
2023-02-03T18:02:49.222Z,153.20
2023-02-03T18:05:17.301Z,152.60
2023-02-03T18:07:45.179Z,158.70
2023-02-03T18:10:12.938Z,155.50
2023-02-03T18:12:41.367Z,133.23
2023-02-03T18:15:10.487Z,147.60
2023-02-03T18:17:38.540Z,148.37
2023-02-03T18:20:08.400Z,150.77
2023-02-03T18:22:36.876Z,146.33
2023-02-03T18:25:05.080Z,149.43
2023-02-03T18:27:34.826Z,152.93
2023-02-03T18:30:03.085Z,147.70
2023-02-03T18:32:31.286Z,138.30
2023-02-03T18:35:00.922Z,143.73
2023-02-03T18:37:29.341Z,150.40
2023-02-03T18:39:57.635Z,137.40
2023-02-03T18:42:25.852Z,151.47
2023-02-03T18:44:54.028Z,140.13
2023-02-03T18:47:22.136Z,139.83
2023-02-03T18:49:49.672Z,131.43
2023-02-03T18:52:17.784Z,131.20
2023-02-03T18:54:49.605Z,125.80
2023-02-03T18:57:18.190Z,123.20
2023-02-03T18:59:45.741Z,123.43
2023-02-03T19:02:13.764Z,126.70
2023-02-03T19:04:41.620Z,131.87
2023-02-03T19:07:09.525Z,130.93
2023-02-03T19:09:37.160Z,132.17
2023-02-03T19:12:06.241Z,139.33
2023-02-03T19:14:34.074Z,124.87
2023-02-03T19:17:01.829Z,131.27
2023-02-03T19:19:30.546Z,133.20
2023-02-03T19:21:58.652Z,141.90
2023-02-03T19:24:27.227Z,130.70
2023-02-03T19:26:54.475Z,129.40
2023-02-03T19:29:22.596Z,127.57
2023-02-03T19:31:50.498Z,125.30
2023-02-03T19:34:19.977Z,126.73
2023-02-03T19:36:48.076Z,125.63
2023-02-03T19:39:16.095Z,121.07
2023-02-03T19:41:44.054Z,125.13
2023-02-03T19:44:12.456Z,128.93
2023-02-03T19:46:42.199Z,126.60
2023-02-03T19:49:13.210Z,122.83
2023-02-03T19:51:41.187Z,116.07
2023-02-03T19:54:10.735Z,117.90
2023-02-03T19:56:39.107Z,118.40
2023-02-03T19:59:06.917Z,125.27
2023-02-03T20:01:35.575Z,117.70
2023-02-03T20:04:02.790Z,120.47
2023-02-03T20:06:31.785Z,125.57
2023-02-03T20:09:00.196Z,129.70
2023-02-03T20:11:29.195Z,119.53
2023-02-03T20:13:57.784Z,118.70
2023-02-03T20:16:24.933Z,117.37
2023-02-03T20:18:53.290Z,107.30
2023-02-03T20:21:21.542Z,119.83
2023-02-03T20:23:49.955Z,118.03
2023-02-03T20:26:18.434Z,114.70
2023-02-03T20:28:47.397Z,111.47
2023-02-03T20:31:15.392Z,116.07
2023-02-03T20:33:43.858Z,125.90
2023-02-03T20:36:12.480Z,114.50
2023-02-03T20:38:40.494Z,114.80
2023-02-03T20:41:10.608Z,118.30
2023-02-03T20:43:39.266Z,113.23
2023-02-03T20:46:32.236Z,116.17
2023-02-03T20:49:00.150Z,139.07
2023-02-03T20:51:29.259Z,122.47
2023-02-03T20:53:57.249Z,118.80
2023-02-03T20:56:26.356Z,111.67
2023-02-03T20:58:54.530Z,114.10
2023-02-03T21:01:22.921Z,103.70
2023-02-03T21:04:11.169Z,115.30
2023-02-03T21:06:39.923Z,109.97
2023-02-03T21:09:14.955Z,113.53
2023-02-03T21:11:43.270Z,112.97
2023-02-03T21:14:22.194Z,119.83
2023-02-03T21:16:50.459Z,115.27
2023-02-03T21:19:38.659Z,131.07
2023-02-03T21:22:22.922Z,124.13
2023-02-03T21:25:01.774Z,114.23
2023-02-03T21:27:32.915Z,148.50
2023-02-03T21:30:01.836Z,132.63
2023-02-03T21:32:38.391Z,131.90
2023-02-03T21:35:26.800Z,125.13
2023-02-03T21:37:57.130Z,109.23
2023-02-03T21:40:26.575Z,117.53
2023-02-03T21:42:54.626Z,126.30
2023-02-03T21:45:32.345Z,119.43
2023-02-03T21:48:03.534Z,124.97
2023-02-03T21:50:35.284Z,122.27
2023-02-03T21:53:09.528Z,113.97
2023-02-03T21:55:38.108Z,110.53
2023-02-03T21:58:30.659Z,112.50
2023-02-03T22:00:58.620Z,126.33
2023-02-03T22:03:43.383Z,121.77
2023-02-03T22:06:13.167Z,124.67
2023-02-03T22:08:44.397Z,120.53
2023-02-03T22:11:11.959Z,123.17
2023-02-03T22:13:39.812Z,122.20
2023-02-03T22:16:07.831Z,124.63
2023-02-03T22:18:35.597Z,120.80
2023-02-03T22:21:03.441Z,126.80
2023-02-03T22:23:30.984Z,126.17
2023-02-03T22:25:58.138Z,122.67
2023-02-03T22:28:26.780Z,124.47
2023-02-03T22:30:54.144Z,131.53
2023-02-03T22:33:22.626Z,122.33
2023-02-03T22:35:51.070Z,123.30
2023-02-03T22:38:19.603Z,128.67
2023-02-03T22:40:47.134Z,124.43
2023-02-03T22:43:15.123Z,132.83
2023-02-03T22:45:43.514Z,132.33
2023-02-03T22:48:10.662Z,127.80
2023-02-03T22:50:38.973Z,128.10
2023-02-03T22:53:08.969Z,121.87
2023-02-03T22:55:38.446Z,130.30
2023-02-03T22:58:08.194Z,119.70
2023-02-03T23:00:35.795Z,127.57
2023-02-03T23:03:04.255Z,135.30
2023-02-03T23:05:32.398Z,133.90
2023-02-03T23:08:01.633Z,144.10
2023-02-03T23:10:32.150Z,145.50
2023-02-03T23:13:02.979Z,148.67
2023-02-03T23:15:30.709Z,155.20
2023-02-03T23:17:58.571Z,161.10
2023-02-03T23:20:26.285Z,149.90
2023-02-03T23:22:54.441Z,152.63
2023-02-03T23:25:23.595Z,149.23
2023-02-03T23:27:51.732Z,150.13
2023-02-03T23:30:20.745Z,154.10
2023-02-03T23:32:49.032Z,149.70
2023-02-03T23:35:35.738Z,148.67
2023-02-03T23:38:03.722Z,140.98
2023-02-03T23:40:31.902Z,147.10
2023-02-03T23:43:00.360Z,136.23
2023-02-03T23:45:30.566Z,144.27
2023-02-03T23:47:58.720Z,138.50
2023-02-03T23:50:27.059Z,135.60
2023-02-03T23:52:55.646Z,135.80
2023-02-03T23:55:23.613Z,132.93
2023-02-03T23:57:51.810Z,130.83
